Nathalie — OJLP — position and weather

sailwx.info

Track history (hours):
 
Tides and Currents Weather Stations Pressure Air Temp Water Temp Dewpoint Dewpoint Depression Visibility Wind Speed Wind Dir Waves Ship Positions

Nathalie

Last reported at 2015-Sep-04 07:33 UTC. Time now 2015-Sep-04 07:52 UTC.
Position N 54°32' E 018°31'.

Length 64 m; draft 2.2 m.

Type: Cargo ship. MMSI: 230987660.

Date/timePositionNaut miles runAvg speedWind from/ knotsBaromVisibWave heightAir tempDewpointWater temp
2015-Sep-04 07:33N 54°32' E 018°31'1 1.4
2015-Sep-04 06:33N 54°32' E 018°34'9 9.1
2015-Sep-04 05:33N 54°33' E 018°49'9 9.3
2015-Sep-04 04:34N 54°41' E 018°57'9 9.4
2015-Sep-04 03:34N 54°51' E 018°58'9 9.4
2015-Sep-04 02:33N 55°00' E 018°58'9 9.0
2015-Sep-04 01:34N 55°09' E 018°58'9 8.6
2015-Sep-04 00:34N 55°18' E 018°58'8 8.3
2015-Sep-03 23:34N 55°26' E 018°58'  
2015-Aug-29 18:07N 59°56' E 021°39'5 9.2
2015-Aug-29 17:34N 59°53' E 021°31'8 8.3
2015-Aug-29 16:33N 59°46' E 021°21'  
2015-Aug-27 06:29N 56°31' E 020°60'6 6.3
2015-Aug-27 05:33N 56°34' E 020°51'9 9.3
2015-Aug-27 04:33N 56°43' E 020°55'169 7.9
2015-Aug-26 07:13N 59°32' E 021°20'6 8.3
2015-Aug-26 06:33N 59°37' E 021°20'9 8.9
2015-Aug-26 05:33N 59°46' E 021°21'9 9.0
2015-Aug-26 04:33N 59°55' E 021°16'  
Track history (hours):
 
Tides and Currents Weather Stations Pressure Air Temp Water Temp Dewpoint Dewpoint Depression Visibility Wind Speed Wind Dir Waves Ship Positions

Nathalie

Last reported at 2015-Sep-04 07:33 UTC. Time now 2015-Sep-04 07:52 UTC.
Position N 54°32' E 018°31'.

Length 64 m; draft 2.2 m.

Type: Cargo ship. MMSI: 230987660.

Date/timePositionNaut miles runAvg speedWind from/ knotsBaromVisibWave heightAir tempDewpointWater temp
2015-Sep-04 07:33N 54°32' E 018°31'1 1.4
2015-Sep-04 06:33N 54°32' E 018°34'9 9.1
2015-Sep-04 05:33N 54°33' E 018°49'9 9.3
2015-Sep-04 04:34N 54°41' E 018°57'9 9.4
2015-Sep-04 03:34N 54°51' E 018°58'9 9.4
2015-Sep-04 02:33N 55°00' E 018°58'9 9.0
2015-Sep-04 01:34N 55°09' E 018°58'9 8.6
2015-Sep-04 00:34N 55°18' E 018°58'8 8.3
2015-Sep-03 23:34N 55°26' E 018°58'  
2015-Aug-29 18:07N 59°56' E 021°39'5 9.2
2015-Aug-29 17:34N 59°53' E 021°31'8 8.3
2015-Aug-29 16:33N 59°46' E 021°21'  
2015-Aug-27 06:29N 56°31' E 020°60'6 6.3
2015-Aug-27 05:33N 56°34' E 020°51'9 9.3
2015-Aug-27 04:33N 56°43' E 020°55'169 7.9
2015-Aug-26 07:13N 59°32' E 021°20'6 8.3
2015-Aug-26 06:33N 59°37' E 021°20'9 8.9
2015-Aug-26 05:33N 59°46' E 021°21'9 9.0
2015-Aug-26 04:33N 59°55' E 021°16'  

Dump ship's entire track history